Terminal Aerodrome Forecast
Issued by NWS Pendleton, OR

Home | Current Version | Previous Version | Text Only | Print | Product List | Glossary On
Versions: 1 2 3 4 5 6 7 8 9 10 11 12 13 14 15 16 17 18 19
000
FTUS46 KPDT 012300
TAFPDT
TAF
KPDT 012335Z 0200/0224 29006KT P6SM FEW250
     FM020300 12005KT P6SM SCT250
     FM021200 10002KT P6SM SCT060 BKN100 OVC150
     FM022100 30010KT P6SM BKN050 OVC080=

USA.gov is the U.S. government's official web portal to all federal, state and local government web resources and services.